createdAt,value
2022-12-26T00:02:01.526Z,63.48
2022-12-26T00:04:50.597Z,63.23
2022-12-26T00:07:14.605Z,63.83
2022-12-26T00:09:41.116Z,63.32
2022-12-26T00:12:07.757Z,63.04
2022-12-26T00:14:34.278Z,63.57
2022-12-26T00:17:00.886Z,63.30
2022-12-26T00:19:27.395Z,63.57
2022-12-26T00:21:53.957Z,62.89
2022-12-26T00:24:20.489Z,64.14
2022-12-26T00:26:47.003Z,64.45
2022-12-26T00:29:13.541Z,63.35
2022-12-26T00:31:40.095Z,63.43
2022-12-26T00:34:06.692Z,62.76
2022-12-26T00:36:34.233Z,62.42
2022-12-26T00:39:02.143Z,63.27
2022-12-26T00:41:30.470Z,64.18
2022-12-26T00:43:57.133Z,64.19
2022-12-26T00:46:24.514Z,62.85
2022-12-26T00:48:51.103Z,63.70
2022-12-26T00:51:17.669Z,63.62
2022-12-26T00:53:45.025Z,64.08
2022-12-26T00:56:12.087Z,63.00
2022-12-26T00:58:38.733Z,63.43
2022-12-26T01:01:08.262Z,63.30
2022-12-26T01:03:34.880Z,62.75
2022-12-26T01:06:02.217Z,62.23
2022-12-26T01:08:28.774Z,63.60
2022-12-26T01:10:55.280Z,63.02
2022-12-26T01:13:21.851Z,62.68
2022-12-26T01:15:52.463Z,62.62
2022-12-26T01:18:19.429Z,62.97
2022-12-26T01:20:45.949Z,62.51
2022-12-26T01:23:12.447Z,62.90
2022-12-26T01:26:15.203Z,63.60
2022-12-26T01:28:26.075Z,63.53
2022-12-26T01:30:52.674Z,63.71
2022-12-26T01:33:19.244Z,64.41
2022-12-26T01:35:50.285Z,64.50
2022-12-26T01:38:16.776Z,65.17
2022-12-26T01:40:44.300Z,64.44
2022-12-26T01:43:14.668Z,64.50
2022-12-26T01:45:43.245Z,64.36
2022-12-26T01:48:20.185Z,65.10
2022-12-26T01:50:52.134Z,64.80
2022-12-26T01:53:23.012Z,64.76
2022-12-26T01:56:00.369Z,64.51
2022-12-26T01:58:32.047Z,64.00
2022-12-26T02:00:59.421Z,64.53
2022-12-26T02:03:44.726Z,65.15
2022-12-26T02:06:11.544Z,64.97
2022-12-26T02:08:39.080Z,64.54
2022-12-26T02:11:16.499Z,63.78
2022-12-26T02:13:43.108Z,63.19
2022-12-26T02:16:13.514Z,62.75
2022-12-26T02:18:40.256Z,63.16
2022-12-26T02:21:12.732Z,63.66
2022-12-26T02:24:15.917Z,63.02
2022-12-26T02:26:51.408Z,62.40
2022-12-26T02:29:36.786Z,62.91
2022-12-26T02:32:19.364Z,62.40
2022-12-26T02:35:14.257Z,61.87
2022-12-26T02:38:24.866Z,61.90
2022-12-26T02:41:13.244Z,61.95
2022-12-26T02:44:01.067Z,61.34
2022-12-26T02:46:58.017Z,62.74
2022-12-26T02:50:15.040Z,61.69
2022-12-26T02:53:38.831Z,62.88
2022-12-26T02:56:38.873Z,64.09
2022-12-26T02:59:55.467Z,63.77
2022-12-26T03:02:46.768Z,63.71
2022-12-26T03:05:36.628Z,64.14
2022-12-26T03:08:23.531Z,63.47
2022-12-26T03:11:09.415Z,63.13
2022-12-26T03:13:37.239Z,63.60
2022-12-26T03:16:26.020Z,62.89
2022-12-26T03:19:00.746Z,63.17
2022-12-26T03:21:30.142Z,63.26
2022-12-26T03:23:56.927Z,63.70
2022-12-26T03:26:41.701Z,63.74
2022-12-26T03:29:30.328Z,64.29
2022-12-26T03:31:57.842Z,63.79
2022-12-26T03:34:24.489Z,64.04
2022-12-26T03:37:01.172Z,63.40
2022-12-26T03:40:17.051Z,64.46
2022-12-26T03:43:18.148Z,65.05
2022-12-26T03:46:29.043Z,65.47
2022-12-26T03:49:24.945Z,65.28
2022-12-26T03:52:23.039Z,65.29
2022-12-26T03:55:25.235Z,64.29
2022-12-26T03:58:56.886Z,65.17
2022-12-26T04:01:44.437Z,65.08
2022-12-26T04:04:32.620Z,64.51
2022-12-26T04:07:27.566Z,64.64
2022-12-26T04:10:17.709Z,64.36
2022-12-26T04:13:04.348Z,64.36
2022-12-26T04:15:52.538Z,64.65
2022-12-26T04:18:41.823Z,63.89
2022-12-26T04:21:35.649Z,63.82
2022-12-26T04:24:47.874Z,63.18
2022-12-26T04:27:35.084Z,63.28
2022-12-26T04:30:20.361Z,63.58
2022-12-26T04:33:08.210Z,64.06
2022-12-26T04:36:01.334Z,64.54
2022-12-26T04:38:49.595Z,64.64
2022-12-26T04:41:36.538Z,64.29
2022-12-26T04:44:13.430Z,64.40
2022-12-26T04:46:41.966Z,63.89
2022-12-26T04:49:30.232Z,64.06
2022-12-26T04:51:57.489Z,63.93
2022-12-26T04:54:24.329Z,63.69
2022-12-26T04:56:50.971Z,63.89
2022-12-26T04:59:17.736Z,63.77
2022-12-26T05:02:02.733Z,63.91
2022-12-26T05:04:48.185Z,64.05
2022-12-26T05:07:45.156Z,64.52
2022-12-26T05:10:17.266Z,64.59
2022-12-26T05:12:43.754Z,64.82
2022-12-26T05:15:11.252Z,65.01
2022-12-26T05:17:56.395Z,64.60
2022-12-26T05:20:41.495Z,64.96
2022-12-26T05:23:35.371Z,64.71
2022-12-26T05:26:21.128Z,64.88
2022-12-26T05:28:54.372Z,65.11
2022-12-26T05:31:20.971Z,64.71
2022-12-26T05:34:05.536Z,64.79
2022-12-26T05:36:38.397Z,64.72
2022-12-26T05:39:06.232Z,64.61
2022-12-26T05:41:32.759Z,64.71
2022-12-26T05:43:59.355Z,64.77
2022-12-26T05:46:26.034Z,64.31
2022-12-26T05:48:52.513Z,64.01
2022-12-26T05:51:19.089Z,63.09
2022-12-26T05:53:45.717Z,62.81
2022-12-26T05:56:14.226Z,62.98
2022-12-26T05:58:41.158Z,62.94
2022-12-26T06:01:08.892Z,63.91
2022-12-26T06:03:35.959Z,63.90
2022-12-26T06:06:02.748Z,63.23
2022-12-26T06:08:29.544Z,63.06
2022-12-26T06:10:56.080Z,62.45
2022-12-26T06:13:22.602Z,62.41
2022-12-26T06:15:49.154Z,62.83
2022-12-26T06:18:15.791Z,62.04
2022-12-26T06:20:42.327Z,63.10
2022-12-26T06:23:08.866Z,62.89
2022-12-26T06:25:35.463Z,63.46
2022-12-26T06:28:01.970Z,62.66
2022-12-26T06:30:28.493Z,62.75
2022-12-26T06:32:55.017Z,62.45
2022-12-26T06:35:21.606Z,62.52
2022-12-26T06:37:48.115Z,61.79
2022-12-26T06:40:14.628Z,61.59
2022-12-26T06:42:41.140Z,61.06
2022-12-26T06:45:08.178Z,61.58
2022-12-26T06:47:34.734Z,60.88
2022-12-26T06:50:01.772Z,61.75
2022-12-26T06:52:28.236Z,62.20
2022-12-26T06:54:54.766Z,62.42
2022-12-26T06:57:21.410Z,62.86
2022-12-26T06:59:47.919Z,62.36
2022-12-26T07:02:14.520Z,62.93
2022-12-26T07:04:41.095Z,62.41
2022-12-26T07:07:07.631Z,62.09
2022-12-26T07:09:34.292Z,61.70
2022-12-26T07:12:00.902Z,61.25
2022-12-26T07:14:27.389Z,60.48
2022-12-26T07:16:54.006Z,61.24
2022-12-26T07:19:20.657Z,60.80
2022-12-26T07:21:47.160Z,60.33
2022-12-26T07:24:19.308Z,60.31
2022-12-26T07:26:48.041Z,59.82
2022-12-26T07:29:15.558Z,60.59
2022-12-26T07:31:42.488Z,61.64
2022-12-26T07:34:09.050Z,60.60
2022-12-26T07:36:35.610Z,60.11
2022-12-26T07:39:02.108Z,61.27
2022-12-26T07:41:48.454Z,60.72
2022-12-26T07:44:15.004Z,61.58
2022-12-26T07:46:41.684Z,61.09
2022-12-26T07:49:09.028Z,60.44
2022-12-26T07:51:35.585Z,59.80
2022-12-26T07:54:07.262Z,59.00
2022-12-26T07:56:37.366Z,59.81
2022-12-26T07:59:03.953Z,60.08
2022-12-26T08:01:30.627Z,59.83
2022-12-26T08:03:57.293Z,59.78
2022-12-26T08:06:23.887Z,58.92
2022-12-26T08:08:51.558Z,59.03
2022-12-26T08:11:21.030Z,60.42
2022-12-26T08:13:47.555Z,60.35
2022-12-26T08:16:14.935Z,61.05
2022-12-26T08:18:41.971Z,61.54
2022-12-26T08:21:09.242Z,61.15
2022-12-26T08:23:35.964Z,62.36
2022-12-26T08:26:10.833Z,60.43
2022-12-26T08:28:41.612Z,59.62
2022-12-26T08:31:09.474Z,59.88
2022-12-26T08:33:36.533Z,60.00
2022-12-26T08:36:04.617Z,59.89
2022-12-26T08:38:31.839Z,60.05
2022-12-26T08:41:00.199Z,60.11
2022-12-26T08:46:13.277Z,59.75
2022-12-26T08:48:41.061Z,60.11
2022-12-26T08:51:11.367Z,61.02
2022-12-26T08:53:38.129Z,60.90
2022-12-26T08:56:07.782Z,60.99
2022-12-26T08:58:35.230Z,61.31
2022-12-26T09:01:08.094Z,61.66
2022-12-26T09:03:34.726Z,61.56
2022-12-26T09:06:06.000Z,62.17
2022-12-26T09:08:36.365Z,64.48
2022-12-26T09:11:08.285Z,65.73
2022-12-26T09:13:35.475Z,67.64
2022-12-26T09:16:34.100Z,67.65
2022-12-26T09:19:04.712Z,68.90
2022-12-26T09:21:31.625Z,70.79
2022-12-26T09:23:59.328Z,70.42
2022-12-26T09:26:26.304Z,70.80
2022-12-26T09:28:53.094Z,70.52
2022-12-26T09:31:22.454Z,70.96
2022-12-26T09:33:49.548Z,70.14
2022-12-26T09:36:28.196Z,69.78
2022-12-26T09:38:56.731Z,69.73
2022-12-26T09:41:49.880Z,69.99
2022-12-26T09:44:21.890Z,69.83
2022-12-26T09:47:03.426Z,69.95
2022-12-26T09:49:36.510Z,70.49
2022-12-26T09:52:16.779Z,70.03
2022-12-26T09:54:49.660Z,69.55
2022-12-26T09:57:19.037Z,69.85
2022-12-26T09:59:50.457Z,69.83
2022-12-26T10:02:20.858Z,69.86
2022-12-26T10:04:47.891Z,70.23
2022-12-26T10:07:27.457Z,70.51
2022-12-26T10:10:05.164Z,72.54
2022-12-26T10:12:34.633Z,71.25
2022-12-26T10:15:35.901Z,72.07
2022-12-26T10:18:22.427Z,72.34
2022-12-26T10:21:01.207Z,73.48
2022-12-26T10:23:32.481Z,73.14
2022-12-26T10:26:16.067Z,71.94
2022-12-26T10:28:49.185Z,71.07
2022-12-26T10:31:41.544Z,70.71
2022-12-26T10:34:10.357Z,71.09
2022-12-26T10:36:44.594Z,71.88
2022-12-26T10:39:22.661Z,70.74
2022-12-26T10:41:54.902Z,70.86
2022-12-26T10:44:27.331Z,70.29
2022-12-26T10:47:15.887Z,71.07
2022-12-26T10:49:45.119Z,70.64
2022-12-26T10:52:12.499Z,71.10
2022-12-26T10:54:39.296Z,70.71
2022-12-26T10:57:06.007Z,70.78
2022-12-26T10:59:42.395Z,70.58
2022-12-26T11:02:23.590Z,71.34
2022-12-26T11:05:21.930Z,71.16
2022-12-26T11:08:14.913Z,70.71
2022-12-26T11:10:46.654Z,70.87
2022-12-26T11:13:19.866Z,70.70
2022-12-26T11:15:49.316Z,70.28
2022-12-26T11:18:49.085Z,69.77
2022-12-26T11:21:18.409Z,70.35
2022-12-26T11:23:49.709Z,69.77
2022-12-26T11:26:27.427Z,70.02
2022-12-26T11:29:13.099Z,69.77
2022-12-26T11:31:42.138Z,69.38
2022-12-26T11:34:10.373Z,69.80
2022-12-26T11:36:40.345Z,70.64
2022-12-26T11:39:22.328Z,71.67
2022-12-26T11:41:49.219Z,71.37
2022-12-26T11:44:25.433Z,72.17
2022-12-26T11:47:11.929Z,72.32
2022-12-26T11:49:41.367Z,72.15
2022-12-26T11:52:40.362Z,72.80
2022-12-26T11:55:27.771Z,73.04
2022-12-26T11:58:06.648Z,72.50
2022-12-26T12:00:43.346Z,72.39
2022-12-26T12:03:18.843Z,72.89
2022-12-26T12:05:52.405Z,71.85
2022-12-26T12:08:33.890Z,72.25
2022-12-26T12:11:26.799Z,71.82
2022-12-26T12:14:02.264Z,70.62
2022-12-26T12:17:02.158Z,70.29
2022-12-26T12:20:02.376Z,70.06
2022-12-26T12:22:53.453Z,70.10
2022-12-26T12:25:27.751Z,70.57
2022-12-26T12:28:04.789Z,70.21
2022-12-26T12:30:37.007Z,69.73
2022-12-26T12:33:18.590Z,70.18
2022-12-26T12:36:06.499Z,70.32
2022-12-26T12:38:41.946Z,69.11
2022-12-26T12:41:18.259Z,69.14
2022-12-26T12:44:14.493Z,69.11
2022-12-26T12:46:59.948Z,69.26
2022-12-26T12:49:42.936Z,68.98
2022-12-26T12:52:38.277Z,68.87
2022-12-26T12:55:29.982Z,69.83
2022-12-26T12:58:03.183Z,70.70
2022-12-26T13:00:39.615Z,71.01
2022-12-26T13:03:27.089Z,70.29
2022-12-26T13:06:16.540Z,70.44
2022-12-26T13:08:52.181Z,70.74
2022-12-26T13:11:27.811Z,70.75
2022-12-26T13:14:01.927Z,70.68
2022-12-26T13:16:35.870Z,70.78
2022-12-26T13:19:07.025Z,69.85
2022-12-26T13:21:37.743Z,70.65
2022-12-26T13:24:23.868Z,70.28
2022-12-26T13:27:25.990Z,70.51
2022-12-26T13:29:53.851Z,69.63
2022-12-26T13:32:20.821Z,69.94
2022-12-26T13:34:48.153Z,69.93
2022-12-26T13:37:39.563Z,69.53
2022-12-26T13:40:07.184Z,69.48
2022-12-26T13:42:55.251Z,69.20
2022-12-26T13:45:53.747Z,68.68
2022-12-26T13:48:26.354Z,68.58
2022-12-26T13:50:57.544Z,68.83
2022-12-26T13:53:26.761Z,69.06
2022-12-26T13:56:02.445Z,68.94
2022-12-26T13:58:41.660Z,68.75
2022-12-26T14:01:17.451Z,68.63
2022-12-26T14:04:07.216Z,67.96
2022-12-26T14:06:44.712Z,69.47
2022-12-26T14:09:43.693Z,69.78
2022-12-26T14:12:32.593Z,70.11
2022-12-26T14:15:30.252Z,69.48
2022-12-26T14:18:23.012Z,69.86
2022-12-26T14:21:26.861Z,69.90
2022-12-26T14:24:00.618Z,70.19
2022-12-26T14:26:27.604Z,71.34
2022-12-26T14:29:02.983Z,70.65
2022-12-26T14:31:40.898Z,70.06
2022-12-26T14:34:16.556Z,70.28
2022-12-26T14:36:52.231Z,70.90
2022-12-26T14:39:31.517Z,70.91
2022-12-26T14:42:25.922Z,70.27
2022-12-26T14:44:54.326Z,69.78
2022-12-26T14:47:46.809Z,70.45
2022-12-26T14:50:31.805Z,70.72
2022-12-26T14:53:23.317Z,71.11
2022-12-26T14:55:57.104Z,70.85
2022-12-26T14:58:48.675Z,71.22
2022-12-26T15:01:18.805Z,70.56
2022-12-26T15:04:14.023Z,71.19
2022-12-26T15:06:59.116Z,71.19
2022-12-26T15:09:59.828Z,71.14
2022-12-26T15:12:59.159Z,71.11
2022-12-26T15:16:02.792Z,70.30
2022-12-26T15:18:54.300Z,70.98
2022-12-26T15:21:38.813Z,70.77
2022-12-26T15:25:16.380Z,71.04
2022-12-26T15:27:31.619Z,71.43
2022-12-26T15:30:21.605Z,69.50
2022-12-26T15:33:00.461Z,70.70
2022-12-26T15:35:34.747Z,70.04
2022-12-26T15:38:23.096Z,69.31
2022-12-26T15:41:15.678Z,69.98
2022-12-26T15:43:50.623Z,70.20
2022-12-26T15:46:36.933Z,70.58
2022-12-26T15:49:57.900Z,71.42
2022-12-26T15:52:42.421Z,70.80
2022-12-26T15:55:14.867Z,70.08
2022-12-26T15:57:51.010Z,70.49
2022-12-26T16:00:27.296Z,69.03
2022-12-26T16:03:18.878Z,69.27
2022-12-26T16:06:00.236Z,67.57
2022-12-26T16:08:48.546Z,68.39
2022-12-26T16:11:29.491Z,68.81
2022-12-26T16:14:01.441Z,69.30
2022-12-26T16:16:31.741Z,69.28
2022-12-26T16:18:59.152Z,69.78
2022-12-26T16:21:50.776Z,68.58
2022-12-26T16:24:18.509Z,70.23
2022-12-26T16:26:46.175Z,70.47
2022-12-26T16:29:20.051Z,69.96
2022-12-26T16:31:46.904Z,69.38
2022-12-26T16:34:17.330Z,68.04
2022-12-26T16:36:44.231Z,68.38
2022-12-26T16:39:11.816Z,69.35
2022-12-26T16:41:57.969Z,69.74
2022-12-26T16:44:31.025Z,70.20
2022-12-26T16:47:01.828Z,71.12
2022-12-26T16:49:28.865Z,70.21
2022-12-26T16:51:55.645Z,68.76
2022-12-26T16:54:22.046Z,68.04
2022-12-26T16:56:50.743Z,69.04
2022-12-26T16:59:21.341Z,68.00
2022-12-26T17:01:53.805Z,68.41
2022-12-26T17:04:25.853Z,67.51
2022-12-26T17:06:55.487Z,68.64
2022-12-26T17:09:24.328Z,69.53
2022-12-26T17:11:55.049Z,69.34
2022-12-26T17:14:25.908Z,69.25
2022-12-26T17:17:21.799Z,68.66
2022-12-26T17:19:54.367Z,68.60
2022-12-26T17:22:29.941Z,68.21
2022-12-26T17:25:20.532Z,68.60
2022-12-26T17:28:15.106Z,69.31
2022-12-26T17:30:43.761Z,69.25
2022-12-26T17:33:30.380Z,69.54
2022-12-26T17:38:58.260Z,69.66
2022-12-26T17:41:24.763Z,70.01
2022-12-26T17:43:52.518Z,70.28
2022-12-26T17:46:19.209Z,70.22
2022-12-26T17:48:45.838Z,69.95
2022-12-26T17:51:16.259Z,69.52
2022-12-26T17:53:47.710Z,70.22
2022-12-26T17:56:16.987Z,69.98
2022-12-26T17:58:44.049Z,71.74
2022-12-26T18:01:12.766Z,71.11
2022-12-26T18:03:43.097Z,71.25
2022-12-26T18:06:11.732Z,72.54
2022-12-26T18:08:41.277Z,71.54
2022-12-26T18:11:10.722Z,71.05
2022-12-26T18:13:38.312Z,71.42
2022-12-26T18:16:06.107Z,73.25
2022-12-26T18:18:44.073Z,72.09
2022-12-26T18:21:12.732Z,72.43
2022-12-26T18:23:40.094Z,72.40
2022-12-26T18:26:08.572Z,72.83
2022-12-26T18:28:35.197Z,72.95
2022-12-26T18:31:01.718Z,73.20
2022-12-26T18:33:28.246Z,72.86
2022-12-26T18:35:55.200Z,73.70
2022-12-26T18:38:22.179Z,74.33
2022-12-26T18:40:50.927Z,76.52
2022-12-26T18:43:17.597Z,77.66
2022-12-26T18:45:44.264Z,77.62
2022-12-26T18:48:15.671Z,76.75
2022-12-26T18:50:43.259Z,76.02
2022-12-26T18:53:10.072Z,77.10
2022-12-26T18:55:36.763Z,76.48
2022-12-26T18:58:03.422Z,76.55
2022-12-26T19:00:30.485Z,75.70
2022-12-26T19:02:57.102Z,75.91
2022-12-26T19:05:30.803Z,75.28
2022-12-26T19:07:58.176Z,76.41
2022-12-26T19:10:30.271Z,74.48
2022-12-26T19:13:04.777Z,74.74
2022-12-26T19:15:35.929Z,74.91
2022-12-26T19:18:04.505Z,73.02
2022-12-26T19:20:31.353Z,74.98
2022-12-26T19:22:58.033Z,74.07
2022-12-26T19:25:25.378Z,74.13
2022-12-26T19:27:52.184Z,72.76
2022-12-26T19:30:19.467Z,71.55
2022-12-26T19:32:46.420Z,71.47
2022-12-26T19:35:13.689Z,71.82
2022-12-26T19:37:40.681Z,73.55
2022-12-26T19:40:08.738Z,72.39
2022-12-26T19:42:37.402Z,73.32
2022-12-26T19:45:05.450Z,74.30
2022-12-26T19:47:32.630Z,75.67
2022-12-26T19:49:59.163Z,75.07
2022-12-26T19:52:25.682Z,72.81
2022-12-26T19:54:52.234Z,75.69
2022-12-26T19:57:19.044Z,73.93
2022-12-26T19:59:45.574Z,74.86
2022-12-26T20:02:12.988Z,72.87
2022-12-26T20:04:39.640Z,71.83
2022-12-26T20:07:06.143Z,73.28
2022-12-26T20:09:32.645Z,73.27
2022-12-26T20:11:59.212Z,72.61
2022-12-26T20:14:26.582Z,72.59
2022-12-26T20:17:06.803Z,71.62
2022-12-26T20:19:34.582Z,72.76
2022-12-26T20:22:01.130Z,73.57
2022-12-26T20:24:27.671Z,73.57
2022-12-26T20:26:54.363Z,73.61
2022-12-26T20:29:20.997Z,73.13
2022-12-26T20:31:49.533Z,73.87
2022-12-26T20:34:16.597Z,71.94
2022-12-26T20:36:43.178Z,72.33
2022-12-26T20:39:15.591Z,73.27
2022-12-26T20:41:42.138Z,73.99
2022-12-26T20:44:08.718Z,72.53
2022-12-26T20:46:36.029Z,72.59
2022-12-26T20:49:04.693Z,72.55
2022-12-26T20:51:37.687Z,73.70
2022-12-26T20:54:06.678Z,72.86
2022-12-26T20:56:33.981Z,73.19
2022-12-26T20:59:00.536Z,72.27
2022-12-26T21:01:27.982Z,72.97
2022-12-26T21:03:56.202Z,72.97
2022-12-26T21:06:23.751Z,71.00
2022-12-26T21:08:51.471Z,71.82
2022-12-26T21:11:32.093Z,71.94
2022-12-26T21:14:01.981Z,72.25
2022-12-26T21:16:36.627Z,72.41
2022-12-26T21:19:09.235Z,72.66
2022-12-26T21:21:42.213Z,71.72
2022-12-26T21:24:14.063Z,71.17
2022-12-26T21:26:42.092Z,71.28
2022-12-26T21:29:13.647Z,70.81
2022-12-26T21:31:40.795Z,69.81
2022-12-26T21:34:08.756Z,71.43
2022-12-26T21:36:35.443Z,70.21
2022-12-26T21:39:07.930Z,71.99
2022-12-26T21:41:35.347Z,70.62
2022-12-26T21:44:01.969Z,68.85
2022-12-26T21:46:28.647Z,70.16
2022-12-26T21:48:55.258Z,69.66
2022-12-26T21:51:28.840Z,70.45
2022-12-26T21:54:15.494Z,68.64
2022-12-26T21:56:42.387Z,69.78
2022-12-26T21:59:27.734Z,67.77
2022-12-26T22:01:57.104Z,69.00
2022-12-26T22:04:23.993Z,68.43
2022-12-26T22:06:51.143Z,68.86
2022-12-26T22:09:17.930Z,69.03
2022-12-26T22:12:03.912Z,67.78
2022-12-26T22:14:30.413Z,68.55
2022-12-26T22:16:57.681Z,70.05
2022-12-26T22:19:26.482Z,69.70
2022-12-26T22:21:53.911Z,70.81
2022-12-26T22:24:21.794Z,68.69
2022-12-26T22:26:48.523Z,68.63
2022-12-26T22:29:15.404Z,70.44
2022-12-26T22:31:41.932Z,69.88
2022-12-26T22:34:12.339Z,68.38
2022-12-26T22:36:39.732Z,68.56
2022-12-26T22:39:06.562Z,68.23
2022-12-26T22:41:33.668Z,69.79
2022-12-26T22:44:00.180Z,67.91
2022-12-26T22:46:26.767Z,67.33
2022-12-26T22:48:53.385Z,68.10
2022-12-26T22:51:23.024Z,69.99
2022-12-26T22:53:52.756Z,70.15
2022-12-26T22:56:19.339Z,67.99
2022-12-26T22:58:46.005Z,68.05
2022-12-26T23:01:14.488Z,68.50
2022-12-26T23:03:41.385Z,69.16
2022-12-26T23:06:28.636Z,70.76
2022-12-26T23:08:58.064Z,69.40
2022-12-26T23:11:32.219Z,69.73
2022-12-26T23:14:01.476Z,69.61
2022-12-26T23:16:54.489Z,69.11
2022-12-26T23:19:58.582Z,69.36
2022-12-26T23:22:25.270Z,68.63
2022-12-26T23:24:51.811Z,67.64
2022-12-26T23:27:37.112Z,68.68
2022-12-26T23:30:20.447Z,69.17
2022-12-26T23:32:50.262Z,68.82
2022-12-26T23:35:17.436Z,68.19
2022-12-26T23:37:43.959Z,67.09
2022-12-26T23:40:13.175Z,67.70
2022-12-26T23:42:40.628Z,66.84
2022-12-26T23:45:08.762Z,67.21
2022-12-26T23:47:39.365Z,67.42
2022-12-26T23:50:07.566Z,67.37
2022-12-26T23:52:34.211Z,68.03
2022-12-26T23:55:03.084Z,66.71
2022-12-26T23:57:31.899Z,69.41
